createdAt,value
2018-06-23T00:00:10.862Z,98155.14
2018-06-23T00:00:42.432Z,98153.00
2018-06-23T00:01:14.043Z,98149.64
2018-06-23T00:01:45.668Z,98145.84
2018-06-23T00:02:17.342Z,98151.36
2018-06-23T00:02:48.908Z,98150.52
2018-06-23T00:03:20.499Z,98150.55
2018-06-23T00:03:52.091Z,98146.31
2018-06-23T00:04:23.684Z,98152.30
2018-06-23T00:04:55.276Z,98153.58
2018-06-23T00:05:26.881Z,98147.60
2018-06-23T00:05:58.466Z,98150.59
2018-06-23T00:06:30.065Z,98153.16
2018-06-23T00:07:01.674Z,98151.02
2018-06-23T00:07:33.336Z,98150.19
2018-06-23T00:08:04.925Z,98148.04
2018-06-23T00:08:36.515Z,98148.48
2018-06-23T00:09:08.121Z,98153.17
2018-06-23T00:09:39.726Z,98149.34
2018-06-23T00:10:11.331Z,98151.95
2018-06-23T00:10:42.926Z,98148.11
2018-06-23T00:11:14.597Z,98148.98
2018-06-23T00:11:46.195Z,98149.84
2018-06-23T00:12:17.801Z,98146.42
2018-06-23T00:12:49.425Z,98150.27
2018-06-23T00:13:21.038Z,98151.53
2018-06-23T00:13:52.617Z,98151.89
2018-06-23T00:14:24.277Z,98153.92
2018-06-23T00:14:55.865Z,98149.64
2018-06-23T00:15:27.470Z,98154.81
2018-06-23T00:15:59.061Z,98151.45
2018-06-23T00:16:30.628Z,98147.69
2018-06-23T00:17:02.222Z,98146.50
2018-06-23T00:17:33.810Z,98150.83
2018-06-23T00:18:05.413Z,98150.44
2018-06-23T00:18:37.000Z,98150.01
2018-06-23T00:19:08.584Z,98152.58
2018-06-23T00:19:40.220Z,98146.59
2018-06-23T00:20:11.805Z,98140.27
2018-06-23T00:20:43.432Z,98142.75
2018-06-23T00:21:15.024Z,98144.02
2018-06-23T00:21:46.633Z,98140.25
2018-06-23T00:22:18.263Z,98148.30
2018-06-23T00:22:49.849Z,98147.87
2018-06-23T00:23:21.458Z,98144.01
2018-06-23T00:23:53.065Z,98143.15
2018-06-23T00:24:24.636Z,98143.15
2018-06-23T00:24:56.241Z,98143.59
2018-06-23T00:25:27.845Z,98150.83
2018-06-23T00:25:59.450Z,98142.71
2018-06-23T00:26:31.041Z,98149.13
2018-06-23T00:27:02.622Z,98148.70
2018-06-23T00:27:34.250Z,98143.99
2018-06-23T00:28:05.833Z,98149.14
2018-06-23T00:28:37.476Z,98143.59
2018-06-23T00:29:09.075Z,98146.13
2018-06-23T00:29:40.683Z,98144.43
2018-06-23T00:30:12.293Z,98140.59
2018-06-23T00:30:43.887Z,98147.01
2018-06-23T00:31:15.556Z,98145.73
2018-06-23T00:31:47.157Z,98138.47
2018-06-23T00:32:18.762Z,98141.03
2018-06-23T00:32:50.374Z,98140.19
2018-06-23T00:33:21.957Z,98138.09
2018-06-23T00:33:53.608Z,98137.70
2018-06-23T00:34:25.230Z,98141.09
2018-06-23T00:34:56.838Z,98138.53
2018-06-23T00:35:28.445Z,98141.53
2018-06-23T00:36:00.054Z,98141.11
2018-06-23T00:36:31.638Z,98136.89
2018-06-23T00:37:03.211Z,98139.03
2018-06-23T00:37:34.798Z,98138.61
2018-06-23T00:38:06.381Z,98134.33
2018-06-23T00:38:37.952Z,98138.17
2018-06-23T00:39:09.530Z,98137.28
2018-06-23T00:39:41.127Z,98138.56
2018-06-23T00:40:12.712Z,98135.61
2018-06-23T00:40:44.314Z,98133.48
2018-06-23T00:41:15.916Z,98140.33
2018-06-23T00:41:47.507Z,98129.23
2018-06-23T00:42:19.093Z,98135.21
2018-06-23T00:42:50.674Z,98128.39
2018-06-23T00:43:22.248Z,98133.95
2018-06-23T00:43:53.858Z,98136.94
2018-06-23T00:44:25.505Z,98131.47
2018-06-23T00:44:57.085Z,98138.65
2018-06-23T00:45:28.689Z,98134.37
2018-06-23T00:46:00.270Z,98134.39
2018-06-23T00:46:31.862Z,98134.81
2018-06-23T00:47:03.437Z,98133.13
2018-06-23T00:47:35.032Z,98132.69
2018-06-23T00:48:06.637Z,98133.98
2018-06-23T00:48:38.236Z,98136.97
2018-06-23T00:49:09.860Z,98131.84
2018-06-23T00:49:41.437Z,98136.11
2018-06-23T00:50:13.022Z,98134.83
2018-06-23T00:50:44.620Z,98130.56
2018-06-23T00:51:16.198Z,98136.11
2018-06-23T00:51:47.783Z,98138.69
2018-06-23T00:52:19.389Z,98133.13
2018-06-23T00:52:50.987Z,98130.58
2018-06-23T00:53:22.576Z,98136.59
2018-06-23T00:53:54.157Z,98131.48
2018-06-23T00:54:25.795Z,98130.20
2018-06-23T00:54:57.397Z,98132.78
2018-06-23T00:55:28.971Z,98132.78
2018-06-23T00:56:00.557Z,98128.51
2018-06-23T00:56:32.125Z,98132.79
2018-06-23T00:57:03.738Z,98125.95
2018-06-23T00:57:35.321Z,98127.65
2018-06-23T00:58:06.892Z,98133.61
2018-06-23T00:58:38.460Z,98128.06
2018-06-23T00:59:10.062Z,98128.51
2018-06-23T00:59:41.699Z,98125.51
2018-06-23T01:00:13.334Z,98127.66
2018-06-23T01:00:44.907Z,98128.48
2018-06-23T01:01:16.494Z,98126.34
2018-06-23T01:01:48.095Z,98127.22
2018-06-23T01:02:19.681Z,98128.50
2018-06-23T01:02:51.281Z,98125.95
2018-06-23T01:03:22.890Z,98129.79
2018-06-23T01:03:54.487Z,98129.37
2018-06-23T01:04:26.069Z,98123.38
2018-06-23T01:04:57.635Z,98123.80
2018-06-23T01:05:29.248Z,98128.95
2018-06-23T01:06:00.833Z,98127.23
2018-06-23T01:06:32.416Z,98125.57
2018-06-23T01:07:03.998Z,98126.00
2018-06-23T01:07:35.564Z,98130.71
2018-06-23T01:08:07.149Z,98127.72
2018-06-23T01:08:38.762Z,98132.86
2018-06-23T01:09:10.373Z,98130.34
2018-06-23T01:09:41.974Z,98126.94
2018-06-23T01:10:13.622Z,98131.16
2018-06-23T01:10:45.209Z,98127.27
2018-06-23T01:11:16.776Z,98134.92
2018-06-23T01:11:48.347Z,98132.34
2018-06-23T01:12:19.923Z,98129.78
2018-06-23T01:12:51.515Z,98130.65
2018-06-23T01:13:23.107Z,98128.02
2018-06-23T01:13:54.715Z,98134.42
2018-06-23T01:14:26.302Z,98134.41
2018-06-23T01:14:57.965Z,98128.86
2018-06-23T01:15:29.569Z,98135.69
2018-06-23T01:16:01.178Z,98132.27
2018-06-23T01:16:32.752Z,98128.42
2018-06-23T01:17:04.330Z,98133.97
2018-06-23T01:17:35.914Z,98133.55
2018-06-23T01:18:07.504Z,98128.41
2018-06-23T01:18:39.100Z,98130.97
2018-06-23T01:19:10.709Z,98126.25
2018-06-23T01:19:42.307Z,98133.52
2018-06-23T01:20:13.880Z,98124.97
2018-06-23T01:20:45.481Z,98129.27
2018-06-23T01:21:17.075Z,98129.27
2018-06-23T01:21:48.661Z,98127.98
2018-06-23T01:22:20.264Z,98131.83
2018-06-23T01:22:51.847Z,98122.45
2018-06-23T01:23:23.429Z,98124.59
2018-06-23T01:23:55.010Z,98128.44
2018-06-23T01:24:26.583Z,98122.88
2018-06-23T01:24:58.184Z,98127.58
2018-06-23T01:25:29.836Z,98128.44
2018-06-23T01:26:01.428Z,98119.94
2018-06-23T01:26:33.101Z,98123.30
2018-06-23T01:27:04.675Z,98125.44
2018-06-23T01:27:36.261Z,98125.42
2018-06-23T01:28:07.829Z,98127.14
2018-06-23T01:28:39.434Z,98129.72
2018-06-23T01:29:11.036Z,98121.59
2018-06-23T01:29:42.622Z,98127.58
2018-06-23T01:30:14.220Z,98129.28
2018-06-23T01:30:45.869Z,98125.00
2018-06-23T01:31:17.454Z,98125.45
2018-06-23T01:31:49.059Z,98130.14
2018-06-23T01:32:20.670Z,98129.77
2018-06-23T01:32:52.277Z,98127.65
2018-06-23T01:33:23.902Z,98125.51
2018-06-23T01:33:55.505Z,98127.23
2018-06-23T01:34:27.085Z,98125.09
2018-06-23T01:34:58.666Z,98126.36
2018-06-23T01:35:30.249Z,98127.64
2018-06-23T01:36:01.877Z,98131.50
2018-06-23T01:36:33.477Z,98128.95
2018-06-23T01:37:05.080Z,98131.51
2018-06-23T01:37:36.652Z,98131.98
2018-06-23T01:38:08.234Z,98131.98
2018-06-23T01:38:39.813Z,98128.55
2018-06-23T01:39:11.422Z,98128.99
2018-06-23T01:39:43.026Z,98129.00
2018-06-23T01:40:14.596Z,98125.59
2018-06-23T01:40:46.229Z,98130.36
2018-06-23T01:41:17.809Z,98123.98
2018-06-23T01:41:49.375Z,98130.36
2018-06-23T01:42:20.978Z,98117.98
2018-06-23T01:42:52.581Z,98121.83
2018-06-23T01:43:24.165Z,98131.72
2018-06-23T01:43:55.742Z,98133.86
2018-06-23T01:44:27.331Z,98120.20
2018-06-23T01:44:58.925Z,98130.88
2018-06-23T01:45:30.519Z,98126.18
2018-06-23T01:46:02.169Z,98126.20
2018-06-23T01:46:33.740Z,98135.63
2018-06-23T01:47:05.336Z,98132.64
2018-06-23T01:47:36.926Z,98127.11
2018-06-23T01:48:08.516Z,98130.53
2018-06-23T01:48:40.099Z,98124.14
2018-06-23T01:49:11.685Z,98126.28
2018-06-23T01:49:43.276Z,98131.41
2018-06-23T01:50:14.930Z,98132.30
2018-06-23T01:50:46.508Z,98128.05
2018-06-23T01:51:18.144Z,98127.63
2018-06-23T01:51:49.743Z,98125.12
2018-06-23T01:52:21.329Z,98131.47
2018-06-23T01:52:52.906Z,98128.48
2018-06-23T01:53:24.517Z,98127.21
2018-06-23T01:53:56.105Z,98129.77
2018-06-23T01:54:27.725Z,98131.48
2018-06-23T01:54:59.319Z,98132.34
2018-06-23T01:55:30.900Z,98135.32
2018-06-23T01:56:02.479Z,98133.19
2018-06-23T01:56:34.080Z,98124.27
2018-06-23T01:57:05.669Z,98136.18
2018-06-23T01:57:37.253Z,98126.35
2018-06-23T01:58:08.829Z,98126.84
2018-06-23T01:58:40.435Z,98118.72
2018-06-23T01:59:12.055Z,98129.83
2018-06-23T01:59:43.629Z,98125.14
2018-06-23T02:00:15.209Z,98126.86
2018-06-23T02:00:46.784Z,98118.36
2018-06-23T02:01:18.378Z,98125.64
2018-06-23T02:01:49.961Z,98126.48
2018-06-23T02:02:21.552Z,98131.61
2018-06-23T02:02:53.145Z,98126.06
2018-06-23T02:03:24.740Z,98129.48
2018-06-23T02:03:56.329Z,98130.34
2018-06-23T02:04:27.906Z,98125.22
2018-06-23T02:04:59.485Z,98129.50
2018-06-23T02:05:31.090Z,98126.51
2018-06-23T02:06:02.684Z,98132.05
2018-06-23T02:06:34.267Z,98122.24
2018-06-23T02:07:05.846Z,98138.47
2018-06-23T02:07:37.449Z,98130.36
2018-06-23T02:08:09.080Z,98128.65
2018-06-23T02:08:40.681Z,98124.00
2018-06-23T02:09:12.280Z,98127.79
2018-06-23T02:09:43.852Z,98129.12
2018-06-23T02:10:15.461Z,98127.85
2018-06-23T02:10:47.046Z,98123.15
2018-06-23T02:11:18.640Z,98120.16
2018-06-23T02:11:50.235Z,98132.14
2018-06-23T02:12:21.841Z,98122.72
2018-06-23T02:12:53.478Z,98129.50
2018-06-23T02:13:25.121Z,98130.77
2018-06-23T02:13:56.725Z,98128.20
2018-06-23T02:14:28.320Z,98122.22
2018-06-23T02:14:59.901Z,98122.64
2018-06-23T02:15:31.485Z,98129.06
2018-06-23T02:16:03.084Z,98129.08
2018-06-23T02:16:49.612Z,98123.15
2018-06-23T02:18:36.077Z,98129.62
2018-06-23T02:20:22.377Z,98129.66
2018-06-23T02:20:59.489Z,98117.27
2018-06-23T02:21:48.941Z,98127.10
2018-06-23T02:22:39.369Z,98123.73
2018-06-23T02:23:28.789Z,98125.87
2018-06-23T02:25:12.162Z,98121.12
2018-06-23T02:26:45.429Z,98121.53
2018-06-23T02:27:31.913Z,98125.78
2018-06-23T02:29:16.269Z,98125.72
2018-06-23T02:29:53.513Z,98135.55
2018-06-23T02:30:25.103Z,98122.33
2018-06-23T02:30:56.717Z,98128.36
2018-06-23T02:31:28.308Z,98126.64
2018-06-23T02:32:18.789Z,98124.89
2018-06-23T02:32:50.373Z,98121.95
2018-06-23T02:33:21.973Z,98125.78
2018-06-23T02:33:53.557Z,98123.23
2018-06-23T02:34:41.958Z,98126.22
2018-06-23T02:35:13.541Z,98124.55
2018-06-23T02:35:45.113Z,98124.09
2018-06-23T02:36:16.717Z,98127.09
2018-06-23T02:36:48.311Z,98127.08
2018-06-23T02:37:19.888Z,98120.25
2018-06-23T02:37:51.533Z,98118.98
2018-06-23T02:38:23.118Z,98125.81
2018-06-23T02:38:54.720Z,98124.96
2018-06-23T02:39:26.326Z,98126.71
2018-06-23T02:39:57.905Z,98123.69
2018-06-23T02:40:29.505Z,98125.01
2018-06-23T02:41:01.118Z,98125.44
2018-06-23T02:41:32.717Z,98124.55
2018-06-23T02:42:04.307Z,98125.01
2018-06-23T02:42:35.884Z,98126.30
2018-06-23T02:43:07.518Z,98127.17
2018-06-23T02:43:39.126Z,98128.50
2018-06-23T02:44:10.733Z,98122.95
2018-06-23T02:44:42.305Z,98125.11
2018-06-23T02:45:13.889Z,98125.55
2018-06-23T02:45:45.470Z,98127.26
2018-06-23T02:46:17.041Z,98127.26
2018-06-23T02:46:48.622Z,98127.73
2018-06-23T02:47:20.322Z,98126.45
2018-06-23T02:47:51.934Z,98125.17
2018-06-23T02:48:23.558Z,98132.44
2018-06-23T02:48:55.178Z,98123.88
2018-06-23T02:49:26.758Z,98126.45
2018-06-23T02:49:58.369Z,98126.02
2018-06-23T02:50:29.985Z,98127.73
2018-06-23T02:51:01.594Z,98126.45
2018-06-23T02:51:33.210Z,98125.55
2018-06-23T02:52:04.793Z,98127.66
2018-06-23T02:52:36.379Z,98126.67
2018-06-23T02:53:07.976Z,98126.17
2018-06-23T02:53:39.611Z,98130.00
2018-06-23T02:54:11.220Z,98121.05
2018-06-23T02:54:42.813Z,98121.95
2018-06-23T02:55:14.408Z,98125.81
2018-06-23T02:55:45.980Z,98123.26
2018-06-23T02:56:17.557Z,98133.98
2018-06-23T02:56:49.158Z,98124.11
2018-06-23T02:57:20.777Z,98127.09
2018-06-23T02:57:52.360Z,98126.17
2018-06-23T02:58:24.014Z,98119.37
2018-06-23T02:58:55.588Z,98121.52
2018-06-23T02:59:27.168Z,98118.48
2018-06-23T02:59:58.748Z,98125.31
2018-06-23T03:00:30.357Z,98127.86
2018-06-23T03:01:01.962Z,98123.59
2018-06-23T03:01:33.569Z,98127.43
2018-06-23T03:02:05.147Z,98121.88
2018-06-23T03:02:36.749Z,98124.02
2018-06-23T03:03:08.373Z,98125.78
2018-06-23T03:03:39.968Z,98127.86
2018-06-23T03:04:11.578Z,98122.75
2018-06-23T03:04:43.184Z,98115.97
2018-06-23T03:05:14.769Z,98123.61
2018-06-23T03:05:46.350Z,98112.13
2018-06-23T03:06:17.963Z,98118.95
2018-06-23T03:06:49.550Z,98126.17
2018-06-23T03:07:21.126Z,98122.80
2018-06-23T03:07:52.705Z,98124.45
2018-06-23T03:08:24.342Z,98130.79
2018-06-23T03:08:55.945Z,98126.09
2018-06-23T03:09:27.554Z,98128.22
2018-06-23T03:09:59.170Z,98122.24
2018-06-23T03:10:30.786Z,98126.51
2018-06-23T03:11:02.392Z,98127.43
2018-06-23T03:11:33.998Z,98129.98
2018-06-23T03:12:05.610Z,98135.12
2018-06-23T03:12:37.193Z,98135.98
2018-06-23T03:13:08.777Z,98128.72
2018-06-23T03:13:40.425Z,98132.56
2018-06-23T03:14:12.034Z,98131.70
2018-06-23T03:14:43.641Z,98134.77
2018-06-23T03:15:15.256Z,98127.86
2018-06-23T03:15:46.861Z,98130.00
2018-06-23T03:16:18.447Z,98133.84
2018-06-23T03:16:50.050Z,98131.30
2018-06-23T03:17:21.666Z,98133.41
2018-06-23T03:17:53.260Z,98131.69
2018-06-23T03:18:24.856Z,98128.73
2018-06-23T03:18:56.470Z,98132.19
2018-06-23T03:19:28.073Z,98133.48
2018-06-23T03:19:59.681Z,98133.50
2018-06-23T03:20:31.333Z,98133.07
2018-06-23T03:21:02.959Z,98131.37
2018-06-23T03:21:34.546Z,98130.57
2018-06-23T03:22:06.133Z,98136.13
2018-06-23T03:22:37.767Z,98135.27
2018-06-23T03:23:09.373Z,98133.20
2018-06-23T03:23:40.944Z,98124.69
2018-06-23T03:24:12.530Z,98129.82
2018-06-23T03:24:44.136Z,98129.80
2018-06-23T03:25:15.708Z,98130.73
2018-06-23T03:25:47.314Z,98133.66
2018-06-23T03:26:18.905Z,98132.38
2018-06-23T03:26:50.475Z,98129.82
2018-06-23T03:27:22.077Z,98136.65
2018-06-23T03:27:53.692Z,98133.66
2018-06-23T03:28:25.283Z,98139.65
2018-06-23T03:28:56.866Z,98135.37
2018-06-23T03:29:28.445Z,98140.11
2018-06-23T03:30:00.063Z,98137.56
2018-06-23T03:30:31.689Z,98129.02
2018-06-23T03:31:03.284Z,98135.42
2018-06-23T03:31:34.880Z,98139.27
2018-06-23T03:32:06.489Z,98136.72
2018-06-23T03:32:38.109Z,98132.88
2018-06-23T03:33:09.709Z,98142.27
2018-06-23T03:33:41.337Z,98132.02
2018-06-23T03:34:12.937Z,98143.55
2018-06-23T03:34:44.541Z,98138.86
2018-06-23T03:35:16.153Z,98140.56
2018-06-23T03:35:47.757Z,98138.00
2018-06-23T03:36:19.369Z,98138.44
2018-06-23T03:36:50.943Z,98139.30
2018-06-23T03:37:22.553Z,98138.48
2018-06-23T03:37:54.129Z,98140.62
2018-06-23T03:38:25.739Z,98127.83
2018-06-23T03:38:57.348Z,98134.23
2018-06-23T03:39:28.998Z,98143.63
2018-06-23T03:40:00.595Z,98141.97
2018-06-23T03:40:32.201Z,98140.69
2018-06-23T03:41:03.772Z,98138.98
2018-06-23T03:41:35.373Z,98133.44
2018-06-23T03:42:06.969Z,98137.28
2018-06-23T03:42:38.549Z,98141.97
2018-06-23T03:43:10.129Z,98139.44
2018-06-23T03:43:41.783Z,98139.84
2018-06-23T03:44:13.384Z,98135.18
2018-06-23T03:44:44.986Z,98139.86
2018-06-23T03:45:16.583Z,98142.85
2018-06-23T03:45:48.179Z,98137.73
2018-06-23T03:46:19.786Z,98136.88
2018-06-23T03:46:51.393Z,98141.20
2018-06-23T03:47:22.988Z,98142.47
2018-06-23T03:47:54.584Z,98140.36
2018-06-23T03:48:26.194Z,98141.22
2018-06-23T03:48:57.808Z,98143.77
2018-06-23T03:49:29.432Z,98139.06
2018-06-23T03:50:01.024Z,98130.96
2018-06-23T03:50:32.620Z,98130.12
2018-06-23T03:51:04.210Z,98126.75
2018-06-23T03:51:35.800Z,98138.64
2018-06-23T03:52:07.431Z,98133.04
2018-06-23T03:52:39.009Z,98136.07
2018-06-23T03:53:10.667Z,98128.82
2018-06-23T03:53:42.254Z,98126.75
2018-06-23T03:54:13.861Z,98132.66
2018-06-23T03:54:45.453Z,98132.25
2018-06-23T03:55:17.062Z,98135.66
2018-06-23T03:55:48.646Z,98124.57
2018-06-23T03:56:20.249Z,98131.83
2018-06-23T03:56:51.861Z,98128.84
2018-06-23T03:57:23.446Z,98134.83
2018-06-23T03:57:55.056Z,98125.91
2018-06-23T03:58:26.638Z,98125.47
2018-06-23T03:58:58.246Z,98133.59
2018-06-23T03:59:29.862Z,98124.20
2018-06-23T04:00:01.504Z,98127.61
2018-06-23T04:00:33.108Z,98126.77
2018-06-23T04:01:04.716Z,98126.34
2018-06-23T04:01:36.325Z,98127.63
2018-06-23T04:02:07.920Z,98125.92
2018-06-23T04:02:39.515Z,98131.05
2018-06-23T04:03:11.089Z,98131.47
2018-06-23T04:03:42.668Z,98131.90
2018-06-23T04:04:14.260Z,98123.80
2018-06-23T04:04:45.855Z,98122.94
2018-06-23T04:05:17.438Z,98126.79
2018-06-23T04:05:49.021Z,98117.83
2018-06-23T04:06:20.622Z,98127.63
2018-06-23T04:06:52.230Z,98130.21
2018-06-23T04:07:23.932Z,98123.37
2018-06-23T04:07:55.517Z,98128.53
2018-06-23T04:08:27.129Z,98124.27
2018-06-23T04:08:58.788Z,98126.41
2018-06-23T04:09:30.388Z,98125.98
2018-06-23T04:10:01.969Z,98123.41
2018-06-23T04:10:33.553Z,98122.16
2018-06-23T04:11:05.153Z,98131.48
2018-06-23T04:11:36.816Z,98124.28
2018-06-23T04:12:08.329Z,98128.53
2018-06-23T04:12:39.937Z,98118.68
2018-06-23T04:13:11.536Z,98126.79
2018-06-23T04:13:43.121Z,98123.00
2018-06-23T04:14:14.769Z,98129.41
2018-06-23T04:14:46.364Z,98124.28
2018-06-23T04:15:17.965Z,98121.30
2018-06-23T04:15:49.551Z,98131.11
2018-06-23T04:16:21.134Z,98125.56
2018-06-23T04:16:52.735Z,98132.39
2018-06-23T04:17:24.332Z,98129.41
2018-06-23T04:17:55.937Z,98128.98
2018-06-23T04:18:27.532Z,98130.25
2018-06-23T04:18:59.127Z,98125.98
2018-06-23T04:19:30.778Z,98131.95
2018-06-23T04:20:02.387Z,98135.33
2018-06-23T04:20:33.964Z,98129.39
2018-06-23T04:21:05.549Z,98131.95
2018-06-23T04:21:37.145Z,98125.98
2018-06-23T04:22:08.733Z,98127.27
2018-06-23T04:22:40.314Z,98132.41
2018-06-23T04:23:11.894Z,98131.13
2018-06-23T04:23:43.478Z,98120.44
2018-06-23T04:24:15.060Z,98130.69
2018-06-23T04:24:46.717Z,98128.13
2018-06-23T04:25:18.298Z,98131.48
2018-06-23T04:25:49.895Z,98135.75
2018-06-23T04:26:21.501Z,98128.91
2018-06-23T04:26:53.105Z,98133.17
2018-06-23T04:27:24.685Z,98137.00
2018-06-23T04:27:56.269Z,98134.83
2018-06-23T04:28:27.860Z,98145.06
2018-06-23T04:28:59.445Z,98138.23
2018-06-23T04:29:31.049Z,98135.67
2018-06-23T04:30:02.683Z,98136.53
2018-06-23T04:30:34.294Z,98133.55
2018-06-23T04:31:05.905Z,98135.72
2018-06-23T04:31:37.510Z,98134.89
2018-06-23T04:32:09.132Z,98130.62
2018-06-23T04:32:40.731Z,98138.31
2018-06-23T04:33:12.342Z,98137.45
2018-06-23T04:33:43.953Z,98132.33
2018-06-23T04:34:15.551Z,98134.37
2018-06-23T04:34:47.157Z,98136.45
2018-06-23T04:35:18.780Z,98139.00
2018-06-23T04:35:50.357Z,98133.47
2018-06-23T04:36:21.962Z,98132.62
2018-06-23T04:36:53.550Z,98130.05
2018-06-23T04:37:25.154Z,98133.51
2018-06-23T04:37:56.737Z,98129.66
2018-06-23T04:38:28.327Z,98130.45
2018-06-23T04:38:59.938Z,98132.53
2018-06-23T04:39:31.536Z,98129.10
2018-06-23T04:40:03.140Z,98133.80
2018-06-23T04:40:34.716Z,98137.20
2018-06-23T04:41:06.322Z,98132.89
2018-06-23T04:41:37.953Z,98134.58
2018-06-23T04:42:09.519Z,98135.86
2018-06-23T04:42:41.136Z,98133.30
2018-06-23T04:43:12.732Z,98135.88
2018-06-23T04:43:44.341Z,98139.30
2018-06-23T04:44:15.988Z,98139.70
2018-06-23T04:44:47.585Z,98133.30
2018-06-23T04:45:19.197Z,98143.13
2018-06-23T04:45:50.821Z,98137.62
2018-06-23T04:46:22.395Z,98140.62
2018-06-23T04:46:53.968Z,98141.05
2018-06-23T04:47:25.622Z,98138.06
2018-06-23T04:47:57.195Z,98138.49
2018-06-23T04:48:28.773Z,98135.93
2018-06-23T04:49:00.378Z,98138.93
2018-06-23T04:49:31.971Z,98144.91
2018-06-23T04:50:03.586Z,98139.78
2018-06-23T04:50:35.169Z,98145.77
2018-06-23T04:51:06.753Z,98126.75
2018-06-23T04:51:38.344Z,98140.20
2018-06-23T04:52:09.925Z,98144.90
2018-06-23T04:52:41.537Z,98136.84
2018-06-23T04:53:13.103Z,98141.92
2018-06-23T04:53:44.683Z,98136.42
2018-06-23T04:54:16.256Z,98143.25
2018-06-23T04:54:47.834Z,98138.58
2018-06-23T04:55:19.437Z,98147.12
2018-06-23T04:55:51.032Z,98142.84
2018-06-23T04:56:22.646Z,98137.30
2018-06-23T04:56:54.239Z,98142.01
2018-06-23T04:57:25.889Z,98142.05
2018-06-23T04:57:57.476Z,98147.19
2018-06-23T04:58:29.058Z,98136.53
2018-06-23T04:59:00.665Z,98138.28
2018-06-23T04:59:32.309Z,98138.30
2018-06-23T05:00:03.886Z,98146.41
2018-06-23T05:00:35.594Z,98143.86
2018-06-23T05:01:07.098Z,98143.00
2018-06-23T05:01:38.692Z,98141.34
2018-06-23T05:02:10.301Z,98140.80
2018-06-23T05:02:41.890Z,98139.36
2018-06-23T05:03:13.524Z,98139.34
2018-06-23T05:03:45.133Z,98141.91
2018-06-23T05:04:16.721Z,98146.67
2018-06-23T05:04:48.316Z,98143.27
2018-06-23T05:05:19.898Z,98143.70
2018-06-23T05:05:51.545Z,98142.85
2018-06-23T05:06:23.129Z,98146.27
2018-06-23T05:06:54.709Z,98149.97
2018-06-23T05:07:26.280Z,98151.22
2018-06-23T05:07:57.878Z,98145.17
2018-06-23T05:08:29.476Z,98146.02
2018-06-23T05:09:01.126Z,98154.63
2018-06-23T05:09:32.746Z,98149.09
2018-06-23T05:10:04.349Z,98143.19
2018-06-23T05:10:35.934Z,98143.62
2018-06-23T05:11:07.528Z,98149.59
2018-06-23T05:11:39.188Z,98146.20
2018-06-23T05:12:10.797Z,98147.11
2018-06-23T05:12:42.409Z,98157.80
2018-06-23T05:13:14.073Z,98145.89
2018-06-23T05:13:45.765Z,98152.73
2018-06-23T05:14:17.408Z,98145.50
2018-06-23T05:14:48.993Z,98146.36
2018-06-23T05:15:22.542Z,98146.83
2018-06-23T05:15:54.126Z,98144.27
2018-06-23T05:16:25.732Z,98140.00
2018-06-23T05:16:57.321Z,98143.42
2018-06-23T05:17:28.925Z,98147.69
2018-06-23T05:18:00.530Z,98140.00
2018-06-23T05:18:32.459Z,98146.36
2018-06-23T05:19:04.077Z,98136.11
2018-06-23T05:19:35.704Z,98133.53
2018-06-23T05:20:07.337Z,98139.50
2018-06-23T05:20:38.912Z,98134.37
2018-06-23T05:21:10.513Z,98145.41
2018-06-23T05:21:42.084Z,98141.56
2018-06-23T05:22:13.667Z,98139.86
2018-06-23T05:22:45.250Z,98144.13
2018-06-23T05:23:16.858Z,98132.18
2018-06-23T05:23:48.450Z,98139.91
2018-06-23T05:24:20.040Z,98143.34
2018-06-23T05:24:51.612Z,98146.34
2018-06-23T05:25:23.213Z,98142.50
2018-06-23T05:25:54.818Z,98137.35
2018-06-23T05:26:26.419Z,98136.80
2018-06-23T05:26:58.030Z,98141.47
2018-06-23T05:27:29.624Z,98141.42
2018-06-23T05:28:01.224Z,98132.45
2018-06-23T05:28:32.810Z,98136.28
2018-06-23T05:29:04.424Z,98137.48
2018-06-23T05:29:36.029Z,98141.33
2018-06-23T05:30:07.644Z,98134.07
2018-06-23T05:30:39.245Z,98137.93
2018-06-23T05:31:10.829Z,98140.55
2018-06-23T05:31:42.443Z,98138.79
2018-06-23T05:32:14.046Z,98141.39
2018-06-23T05:32:45.664Z,98140.91
2018-06-23T05:33:17.310Z,98145.19
2018-06-23T05:33:48.888Z,98136.23
2018-06-23T05:34:20.479Z,98141.39
2018-06-23T05:34:52.079Z,98142.59
2018-06-23T05:35:23.713Z,98144.25
2018-06-23T05:35:55.313Z,98142.55
2018-06-23T05:36:26.953Z,98139.63
2018-06-23T05:36:58.537Z,98138.35
2018-06-23T05:37:30.118Z,98146.05
2018-06-23T05:38:01.712Z,98138.42
2018-06-23T05:38:33.321Z,98141.05
2018-06-23T05:39:04.892Z,98136.79
2018-06-23T05:39:36.481Z,98141.08
2018-06-23T05:40:08.090Z,98143.20
2018-06-23T05:40:39.741Z,98140.63
2018-06-23T05:41:11.330Z,98137.65
2018-06-23T05:41:42.929Z,98140.20
2018-06-23T05:42:14.500Z,98144.06
2018-06-23T05:42:46.072Z,98140.72
2018-06-23T05:43:17.677Z,98140.34
2018-06-23T05:43:49.267Z,98133.55
2018-06-23T05:44:20.877Z,98142.13
2018-06-23T05:44:52.515Z,98136.53
2018-06-23T05:45:24.128Z,98141.29
2018-06-23T05:45:55.786Z,98136.61
2018-06-23T05:46:27.388Z,98142.63
2018-06-23T05:46:58.977Z,98128.98
2018-06-23T05:47:30.545Z,98145.14
2018-06-23T05:48:02.156Z,98142.98
2018-06-23T05:48:33.744Z,98149.82
2018-06-23T05:49:05.320Z,98137.88
2018-06-23T05:49:36.928Z,98142.63
2018-06-23T05:50:08.542Z,98141.72
2018-06-23T05:50:40.116Z,98131.48
2018-06-23T05:51:11.802Z,98144.99
2018-06-23T05:51:43.372Z,98139.92
2018-06-23T05:52:14.957Z,98144.81
2018-06-23T05:52:46.561Z,98139.52
2018-06-23T05:53:18.145Z,98142.11
2018-06-23T05:53:49.716Z,98147.67
2018-06-23T05:54:21.293Z,98141.77
2018-06-23T05:54:52.872Z,98146.12
2018-06-23T05:55:24.457Z,98147.91
2018-06-23T05:55:56.104Z,98144.13
2018-06-23T05:56:27.694Z,98136.02
2018-06-23T05:56:59.298Z,98138.56
2018-06-23T05:57:30.873Z,98142.42
2018-06-23T05:58:02.446Z,98140.77
2018-06-23T05:58:34.041Z,98147.19
2018-06-23T05:59:05.725Z,98145.48
2018-06-23T05:59:37.423Z,98141.66
2018-06-23T06:00:09.026Z,98137.38
2018-06-23T06:00:40.645Z,98139.92
2018-06-23T06:01:12.272Z,98142.43
2018-06-23T06:01:43.852Z,98133.03
2018-06-23T06:02:15.438Z,98144.48
2018-06-23T06:02:47.037Z,98145.75
2018-06-23T06:03:18.645Z,98143.62
2018-06-23T06:03:50.226Z,98143.60
2018-06-23T06:04:21.810Z,98147.88
2018-06-23T06:04:53.417Z,98142.33
2018-06-23T06:05:24.996Z,98147.45
2018-06-23T06:05:56.617Z,98138.91
2018-06-23T06:06:28.267Z,98141.42
2018-06-23T06:06:59.873Z,98143.11
2018-06-23T06:07:31.485Z,98140.11
2018-06-23T06:08:03.074Z,98144.41
2018-06-23T06:08:34.652Z,98129.39
2018-06-23T06:09:06.243Z,98137.50
2018-06-23T06:09:38.189Z,98133.66
2018-06-23T06:10:09.764Z,98152.92
2018-06-23T06:10:41.363Z,98147.33
2018-06-23T06:11:13.018Z,98140.92
2018-06-23T06:11:44.655Z,98143.48
2018-06-23T06:12:16.228Z,98143.95
2018-06-23T06:12:47.806Z,98143.48
2018-06-23T06:13:19.414Z,98143.05
2018-06-23T06:13:51.009Z,98143.09
2018-06-23T06:14:22.578Z,98139.65
2018-06-23T06:14:54.176Z,98145.67
2018-06-23T06:15:25.775Z,98140.13
2018-06-23T06:15:57.368Z,98143.97
2018-06-23T06:16:29.009Z,98139.28
2018-06-23T06:17:00.589Z,98138.44
2018-06-23T06:17:32.197Z,98142.75
2018-06-23T06:18:03.791Z,98134.66
2018-06-23T06:18:35.375Z,98144.53
2018-06-23T06:19:06.967Z,98144.53